createdAt,value
2022-08-03T00:00:54.057Z,100.00
2022-08-03T00:06:04.197Z,99.94
2022-08-03T00:11:07.969Z,99.92
2022-08-03T00:16:10.972Z,100.00
2022-08-03T00:21:13.558Z,100.00
2022-08-03T00:26:18.563Z,100.00
2022-08-03T00:31:26.490Z,100.00
2022-08-03T00:36:44.000Z,100.00
2022-08-03T00:41:46.687Z,100.00
2022-08-03T00:46:49.394Z,100.00
2022-08-03T00:51:52.618Z,100.00
2022-08-03T00:56:59.546Z,100.00
2022-08-03T01:02:03.381Z,100.00
2022-08-03T01:07:19.224Z,100.00
2022-08-03T01:12:27.670Z,100.00
2022-08-03T01:17:57.573Z,100.00
2022-08-03T01:23:28.945Z,100.00
2022-08-03T01:28:50.324Z,100.00
2022-08-03T01:33:59.512Z,100.00
2022-08-03T01:39:05.110Z,100.00
2022-08-03T01:44:29.665Z,100.00
2022-08-03T01:49:38.712Z,100.00
2022-08-03T01:54:45.418Z,100.00
2022-08-03T01:59:50.618Z,100.00
2022-08-03T02:04:56.834Z,100.00
2022-08-03T02:10:02.833Z,100.00
2022-08-03T02:15:07.498Z,100.00
2022-08-03T02:20:12.890Z,100.00
2022-08-03T02:25:16.365Z,100.00
2022-08-03T02:30:20.722Z,100.00
2022-08-03T02:35:26.483Z,100.00
2022-08-03T02:40:31.494Z,100.00
2022-08-03T02:45:45.119Z,100.00
2022-08-03T02:50:51.509Z,100.00
2022-08-03T02:55:56.869Z,100.00
2022-08-03T03:01:02.039Z,100.00
2022-08-03T03:06:05.874Z,100.00
2022-08-03T03:11:10.518Z,100.00
2022-08-03T03:16:15.558Z,100.00
2022-08-03T03:21:20.169Z,100.00
2022-08-03T03:26:23.014Z,100.00
2022-08-03T03:31:25.835Z,100.00
2022-08-03T03:36:28.614Z,100.00
2022-08-03T03:41:31.623Z,100.00
2022-08-03T03:46:38.901Z,100.00
2022-08-03T03:51:41.677Z,100.00
2022-08-03T03:56:45.227Z,100.00
2022-08-03T04:01:47.948Z,100.00
2022-08-03T04:07:20.516Z,99.98
2022-08-03T04:12:26.511Z,99.93
2022-08-03T04:17:31.126Z,99.28
2022-08-03T04:22:35.065Z,98.74
2022-08-03T04:27:40.698Z,98.52
2022-08-03T04:32:46.017Z,98.23
2022-08-03T04:37:51.860Z,97.61
2022-08-03T04:42:56.324Z,96.84
2022-08-03T04:47:59.903Z,96.33
2022-08-03T04:53:07.180Z,96.14
2022-08-03T04:58:10.527Z,95.73
2022-08-03T05:03:23.935Z,95.79
2022-08-03T05:08:28.407Z,94.94
2022-08-03T05:13:31.353Z,94.69
2022-08-03T05:18:34.334Z,93.73
2022-08-03T05:23:38.050Z,93.53
2022-08-03T05:28:40.914Z,92.80
2022-08-03T05:33:54.755Z,92.09
2022-08-03T05:39:02.467Z,91.10
2022-08-03T05:44:06.096Z,89.25
2022-08-03T05:49:08.864Z,88.52
2022-08-03T05:54:12.210Z,87.40
2022-08-03T05:59:37.103Z,85.78
2022-08-03T06:04:38.147Z,83.79
2022-08-03T06:10:34.957Z,82.16
2022-08-03T06:15:05.306Z,81.34
2022-08-03T06:20:11.622Z,80.14
2022-08-03T06:25:14.598Z,79.97
2022-08-03T06:30:21.073Z,79.28
2022-08-03T06:35:24.604Z,78.75
2022-08-03T06:40:31.472Z,77.82
2022-08-03T06:45:35.472Z,76.54
2022-08-03T06:50:45.257Z,76.06
2022-08-03T06:55:52.425Z,74.67
2022-08-03T07:00:57.198Z,73.55
2022-08-03T07:06:00.124Z,72.32
2022-08-03T07:11:02.921Z,69.96
2022-08-03T07:16:07.106Z,68.52
2022-08-03T07:21:11.063Z,67.68
2022-08-03T07:26:13.905Z,65.97
2022-08-03T07:31:16.806Z,61.20
2022-08-03T07:36:19.722Z,60.85
2022-08-03T07:41:22.445Z,56.52
2022-08-03T07:46:25.292Z,54.52
2022-08-03T07:51:29.868Z,52.82
2022-08-03T07:56:32.681Z,53.79
2022-08-03T08:01:38.053Z,49.37
2022-08-03T08:06:40.894Z,49.57
2022-08-03T08:11:43.603Z,47.47
2022-08-03T08:16:47.889Z,46.58
2022-08-03T08:21:53.754Z,45.87
2022-08-03T08:27:05.846Z,47.09
2022-08-03T08:32:09.106Z,46.69
2022-08-03T08:37:12.061Z,46.26
2022-08-03T08:42:15.898Z,45.86
2022-08-03T08:47:22.070Z,45.65
2022-08-03T08:52:29.712Z,45.42
2022-08-03T08:57:43.138Z,45.64
2022-08-03T09:02:47.127Z,46.87
2022-08-03T09:07:50.253Z,44.88
2022-08-03T09:12:53.309Z,45.30
2022-08-03T09:17:58.421Z,44.79
2022-08-03T09:23:19.053Z,43.86
2022-08-03T09:29:01.755Z,44.10
2022-08-03T09:34:01.286Z,44.17
2022-08-03T09:39:06.909Z,42.64
2022-08-03T09:44:24.267Z,42.30
2022-08-03T09:49:28.828Z,42.55
2022-08-03T09:54:32.765Z,42.24
2022-08-03T09:59:36.020Z,41.05
2022-08-03T10:04:52.756Z,38.85
2022-08-03T10:10:30.709Z,38.52
2022-08-03T10:16:22.592Z,39.16
2022-08-03T10:20:50.272Z,38.91
2022-08-03T10:26:01.934Z,38.97
2022-08-03T10:31:07.833Z,38.53
2022-08-03T10:36:12.645Z,38.80
2022-08-03T10:41:18.322Z,38.29
2022-08-03T10:46:21.604Z,38.01
2022-08-03T10:51:25.055Z,38.55
2022-08-03T10:56:52.407Z,39.41
2022-08-03T11:02:00.876Z,38.58
2022-08-03T11:07:16.927Z,37.60
2022-08-03T11:12:30.423Z,38.42
2022-08-03T11:17:46.561Z,38.55
2022-08-03T11:23:01.140Z,37.83
2022-08-03T11:28:28.281Z,37.69
2022-08-03T11:33:31.876Z,37.02
2022-08-03T11:38:34.684Z,36.85
2022-08-03T11:43:41.944Z,37.16
2022-08-03T11:48:59.211Z,37.68
2022-08-03T11:54:04.902Z,36.95
2022-08-03T11:59:20.690Z,36.24
2022-08-03T12:04:24.738Z,36.20
2022-08-03T12:09:27.520Z,35.00
2022-08-03T12:14:48.940Z,36.03
2022-08-03T12:19:53.213Z,36.64
2022-08-03T12:24:55.908Z,37.26
2022-08-03T12:29:59.983Z,37.22
2022-08-03T12:35:05.992Z,36.02
2022-08-03T12:40:13.263Z,35.92
2022-08-03T12:45:28.162Z,35.04
2022-08-03T12:50:36.305Z,34.65
2022-08-03T12:55:40.157Z,33.96
2022-08-03T13:01:09.817Z,33.74
2022-08-03T13:06:18.299Z,32.50
2022-08-03T13:11:22.832Z,33.09
2022-08-03T13:16:45.522Z,34.11
2022-08-03T13:22:01.918Z,34.16
2022-08-03T13:28:01.811Z,33.90
2022-08-03T13:32:30.847Z,33.30
2022-08-03T13:37:33.859Z,32.34
2022-08-03T13:42:38.813Z,31.90
2022-08-03T13:47:41.785Z,30.84
2022-08-03T13:52:46.545Z,31.08
2022-08-03T13:58:04.187Z,31.30
2022-08-03T14:03:14.450Z,30.86
2022-08-03T14:08:18.437Z,30.63
2022-08-03T14:13:22.560Z,29.65
2022-08-03T14:18:28.564Z,28.63
2022-08-03T14:23:39.818Z,27.76
2022-08-03T14:28:42.549Z,27.14
2022-08-03T14:33:45.373Z,26.51
2022-08-03T14:38:48.337Z,25.47
2022-08-03T14:44:02.226Z,24.04
2022-08-03T14:50:38.229Z,24.18
2022-08-03T14:54:31.070Z,22.96
2022-08-03T14:59:56.299Z,23.88
2022-08-03T15:04:56.883Z,24.91
2022-08-03T15:09:59.770Z,24.69
2022-08-03T15:15:06.186Z,23.92
2022-08-03T15:20:27.819Z,23.10
2022-08-03T15:26:28.122Z,22.18
2022-08-03T15:30:56.562Z,21.54
2022-08-03T15:36:00.470Z,20.99
2022-08-03T15:41:03.541Z,20.27
2022-08-03T15:46:28.898Z,20.53
2022-08-03T15:51:30.072Z,20.34
2022-08-03T15:56:32.785Z,19.53
2022-08-03T16:01:35.803Z,19.32
2022-08-03T16:06:38.698Z,18.80
2022-08-03T16:11:41.406Z,18.30
2022-08-03T16:16:44.160Z,18.53
2022-08-03T16:21:48.734Z,18.28
2022-08-03T16:26:52.753Z,17.18
2022-08-03T16:31:55.545Z,17.04
2022-08-03T16:36:58.316Z,18.11
2022-08-03T16:42:01.798Z,18.27
2022-08-03T16:47:04.883Z,18.42
2022-08-03T16:52:07.828Z,18.57
2022-08-03T16:57:10.592Z,18.15
2022-08-03T17:02:26.199Z,18.09
2022-08-03T17:07:29.779Z,18.83
2022-08-03T17:12:33.288Z,18.65
2022-08-03T17:17:37.568Z,18.64
2022-08-03T17:22:59.070Z,18.59
2022-08-03T17:28:50.814Z,18.48
2022-08-03T17:33:26.334Z,18.73
2022-08-03T17:38:40.394Z,19.44
2022-08-03T17:44:15.946Z,20.01
2022-08-03T17:49:24.513Z,20.97
2022-08-03T17:55:57.181Z,22.65
2022-08-03T18:00:36.346Z,25.08
2022-08-03T18:06:11.859Z,27.84
2022-08-03T18:11:16.319Z,29.82
2022-08-03T18:16:33.385Z,32.12
2022-08-03T18:22:04.031Z,35.04
2022-08-03T18:27:03.172Z,37.94
2022-08-03T18:32:13.263Z,39.79
2022-08-03T18:37:23.083Z,41.86
2022-08-03T18:42:27.784Z,44.41
2022-08-03T18:47:55.444Z,47.22
2022-08-03T18:54:02.274Z,48.66
2022-08-03T18:59:10.321Z,50.15
2022-08-03T19:04:15.366Z,51.83
2022-08-03T19:09:28.458Z,52.95
2022-08-03T19:14:39.241Z,54.78
2022-08-03T19:19:45.560Z,56.41
2022-08-03T19:24:52.918Z,57.47
2022-08-03T19:30:00.656Z,58.74
2022-08-03T19:40:32.931Z,60.74
2022-08-03T19:46:05.013Z,62.09
2022-08-03T19:51:12.093Z,63.36
2022-08-03T19:56:18.947Z,64.49
2022-08-03T20:01:22.940Z,66.04
2022-08-03T20:06:25.653Z,67.33
2022-08-03T20:11:29.044Z,68.22
2022-08-03T20:16:31.943Z,69.30
2022-08-03T20:21:35.476Z,70.47
2022-08-03T20:26:44.569Z,71.54
2022-08-03T20:31:47.793Z,72.46
2022-08-03T20:36:50.576Z,72.81
2022-08-03T20:41:53.373Z,73.68
2022-08-03T20:47:00.785Z,74.15
2022-08-03T20:52:04.688Z,75.09
2022-08-03T20:57:21.290Z,75.70
2022-08-03T21:02:29.782Z,76.14
2022-08-03T21:08:06.299Z,77.15
2022-08-03T21:13:02.505Z,59.76
2022-08-03T21:13:39.500Z,77.64
2022-08-03T21:18:49.556Z,78.15
2022-08-03T21:23:54.308Z,78.32
2022-08-03T21:28:57.169Z,78.89
2022-08-03T21:34:02.542Z,79.13
2022-08-03T21:39:08.553Z,79.88
2022-08-03T21:44:11.417Z,80.41
2022-08-03T21:50:04.979Z,81.25
2022-08-03T21:54:41.154Z,81.77
2022-08-03T21:59:53.097Z,82.24
2022-08-03T22:04:57.329Z,82.96
2022-08-03T22:10:02.547Z,84.04
2022-08-03T22:15:09.048Z,84.52
2022-08-03T22:20:16.852Z,85.32
2022-08-03T22:25:23.664Z,85.71
2022-08-03T22:30:27.304Z,86.03
2022-08-03T22:35:32.167Z,86.26
2022-08-03T22:40:51.049Z,86.35
2022-08-03T22:46:10.628Z,86.42
2022-08-03T22:51:15.979Z,86.78
2022-08-03T22:56:18.929Z,87.57
2022-08-03T23:01:22.834Z,88.33
2022-08-03T23:06:27.009Z,88.88
2022-08-03T23:11:29.794Z,89.01
2022-08-03T23:16:38.160Z,88.96
2022-08-03T23:21:52.838Z,88.94
2022-08-03T23:27:04.410Z,88.62
2022-08-03T23:32:08.494Z,87.83
2022-08-03T23:37:13.710Z,87.03
2022-08-03T23:42:21.644Z,86.48
2022-08-03T23:47:25.161Z,86.56
2022-08-03T23:53:08.673Z,86.86
2022-08-03T23:58:34.521Z,87.03
